createdAt,value
2017-08-12T00:00:50.052Z,12.66
2017-08-12T00:21:45.192Z,12.74
2017-08-12T00:32:08.538Z,12.71
2017-08-12T00:47:49.097Z,13.02
2017-08-12T00:58:11.786Z,12.99
2017-08-12T01:08:34.460Z,12.77
2017-08-12T01:29:35.051Z,12.87
2017-08-12T01:50:42.706Z,12.80
2017-08-12T02:01:04.519Z,12.55
2017-08-12T02:22:01.905Z,12.06
2017-08-12T02:32:25.505Z,11.80
2017-08-12T02:42:48.743Z,11.69
2017-08-12T02:53:23.203Z,11.42
2017-08-12T03:07:17.177Z,11.33
2017-08-12T03:38:43.266Z,11.73
2017-08-12T03:49:05.069Z,11.75
2017-08-12T03:59:27.897Z,11.94
2017-08-12T04:09:50.505Z,11.93
2017-08-12T04:20:13.046Z,11.93
2017-08-12T04:30:35.645Z,12.15
2017-08-12T04:46:16.104Z,12.14
2017-08-12T04:56:38.785Z,12.27
2017-08-12T05:07:00.763Z,12.21
2017-08-12T05:17:23.308Z,12.31
2017-08-12T05:27:46.029Z,12.34
2017-08-12T05:38:07.830Z,12.56
2017-08-12T05:52:49.732Z,12.61
2017-08-12T06:03:11.730Z,12.75
2017-08-12T06:13:36.521Z,12.99
2017-08-12T06:23:59.247Z,13.17
2017-08-12T06:34:21.881Z,13.05
2017-08-12T06:44:44.575Z,13.26
2017-08-12T06:55:11.155Z,13.52
2017-08-12T07:05:34.463Z,13.47
2017-08-12T07:15:56.383Z,13.79
2017-08-12T07:26:20.578Z,14.38
2017-08-12T07:36:48.139Z,14.61
2017-08-12T07:47:11.115Z,14.65
2017-08-12T07:57:33.886Z,14.85
2017-08-12T08:07:55.866Z,15.01
2017-08-12T08:18:18.556Z,14.92
2017-08-12T08:28:41.379Z,14.89
2017-08-12T08:39:03.504Z,14.92
2017-08-12T08:49:26.908Z,15.04
2017-08-12T08:59:49.981Z,15.03
2017-08-12T09:10:12.711Z,15.12
2017-08-12T09:20:35.342Z,14.96
2017-08-12T09:30:58.173Z,14.98
2017-08-12T09:46:35.988Z,15.28
2017-08-12T09:56:57.269Z,15.32
2017-08-12T10:07:19.224Z,15.44
2017-08-12T10:17:41.937Z,15.55
2017-08-12T10:28:03.993Z,15.94
2017-08-12T10:38:26.587Z,15.86
2017-08-12T10:48:49.474Z,16.04
2017-08-12T10:53:55.379Z,15.88
2017-08-12T11:04:18.083Z,15.89
2017-08-12T11:14:55.114Z,16.11
2017-08-12T11:30:43.303Z,16.39
2017-08-12T11:41:22.208Z,16.47
2017-08-12T12:29:10.088Z,16.12
2017-08-12T12:39:37.100Z,15.66
2017-08-12T12:50:01.721Z,15.64
2017-08-12T13:11:29.024Z,15.82
2017-08-12T13:21:50.810Z,16.00
2017-08-12T13:32:13.506Z,16.14
2017-08-12T13:47:51.934Z,16.06
2017-08-12T13:58:12.994Z,16.38
2017-08-12T14:08:42.191Z,16.77
2017-08-12T14:19:08.048Z,16.79
2017-08-12T14:29:35.773Z,16.85
2017-08-12T14:40:01.636Z,16.84
2017-08-12T14:50:28.140Z,16.94
2017-08-12T15:06:14.861Z,17.09
2017-08-12T15:16:40.921Z,17.15
2017-08-12T15:27:08.549Z,16.99
2017-08-12T15:48:14.283Z,16.97
2017-08-12T15:58:35.879Z,17.10
2017-08-12T16:09:02.967Z,17.10
2017-08-12T16:19:25.483Z,17.07
2017-08-12T16:29:48.148Z,17.24
2017-08-12T16:55:59.105Z,16.99
2017-08-12T17:06:21.812Z,17.10
2017-08-12T17:16:44.440Z,17.43
2017-08-12T17:27:06.327Z,17.38
2017-08-12T17:37:29.036Z,17.09
2017-08-12T17:47:55.626Z,17.18
2017-08-12T17:58:20.541Z,17.20
2017-08-12T18:08:42.237Z,17.03
2017-08-12T18:19:08.819Z,17.28
2017-08-12T18:24:14.657Z,17.13
2017-08-12T18:34:37.299Z,16.84
2017-08-12T18:50:16.053Z,16.87
2017-08-12T19:00:38.138Z,16.85
2017-08-12T19:11:05.793Z,16.61
2017-08-12T19:21:29.004Z,16.95
2017-08-12T19:31:54.609Z,16.83
2017-08-12T20:08:55.868Z,16.66
2017-08-12T20:19:18.442Z,16.77
2017-08-12T20:29:53.434Z,16.87
2017-08-12T20:45:38.336Z,16.74
2017-08-12T20:56:05.025Z,16.69
2017-08-12T21:06:36.556Z,16.41
2017-08-12T21:27:44.114Z,16.40
2017-08-12T21:38:06.643Z,16.45
2017-08-12T21:48:29.224Z,16.30
2017-08-12T22:04:21.661Z,16.09
2017-08-12T22:14:48.249Z,15.76
2017-08-12T22:25:10.015Z,15.61
2017-08-12T22:35:32.614Z,15.44
2017-08-12T22:45:55.172Z,15.51
2017-08-12T22:56:21.749Z,15.53
2017-08-12T23:06:43.560Z,15.76
2017-08-12T23:17:05.357Z,15.64
2017-08-12T23:27:27.150Z,15.75
2017-08-12T23:37:51.681Z,15.82
2017-08-12T23:48:14.296Z,16.04
2017-08-12T23:58:36.860Z,16.02
